Portada
METAR-TAF:

METAR-TAF

Aeropuertos :

Ankara Esenboğa, Turquía

Aeropuerto Internacional Esenboğa

latitud: 40-07N, longitud: 032-59E, altitud: 953 m

Observación

El informe se hizo hace 32 minutos, a las 03:50 UTC
Viento 2 kt con dirección variable
Temperatura 3°C
Humedad 70%
Presión 1019 hPa
Visibilidad 10 km o más
sin nubes por debajo de 1500 m y sin presencia de cumulonimbus.

METAR: LTAC 280350Z VRB02KT CAVOK 03/M02 Q1019 NOSIG RMK RWY21L VRB01KT RWY03L VRB01KT RWY21R VRB01KT

Hora: 07:22 (04:22 UTC)

Pronóstico

El informe se hizo hace 5 horas y 42 minutos, a las 22:40 UTC
Pronóstico válido del 28 a las 00 UTC al 28 a las 24 UTC
Viento 2 kt con dirección variable
Visibilidad 10 km o más
sin nubes por debajo de 1500 m y sin presencia de cumulonimbus.

TAF: LTAC 272240Z 2800/2824 VRB02KT CAVOK

Observaciones y pronósticos meteorológicos de más de 4000 aeropuertos (mensajes METAR y TAF).

Los puntos amarillos y rojos representan las estaciones disponibles.

Ponga el ratón en el punto deseado para ver el nombre de la estación.

Haga clic para ver las observaciones y los pronósticos meteorológicos.

Para cambiar el mapa : haga clic en los botones verdes con una cruz de color negro para hacer un zoom, en el botón verde con un guión para alejar o en las flechas verdes para mapas adyacentes.


METAR-TAF: